Time;durP1;ratioP1;P1;durP2;ratioP2;P2;SDS_P1;SDS_P2;PMS_P1;PMS_P2;Temp;Humidity;BMP_temperature;BMP_pressure;BME280_temperature;BME280_humidity;BME280_pressure;Samples;Min_cycle;Max_cycle;Signal;HPM_P1;HPM_P2
2023/12/06 00:02:25;;;;;;;;;19.00;17.00;;;;;;;;5058318;28;45341;-68
2023/12/06 00:04:51;;;;;;;;;18.75;16.25;;;;;;;;5058537;28;45634;-69
2023/12/06 00:07:16;;;;;;;;;17.50;16.25;;;;;;;;5058333;28;46270;-68
2023/12/06 00:09:41;;;;;;;;;18.50;16.50;;;;;;;;5057574;28;45514;-68
2023/12/06 00:12:07;;;;;;;;;17.00;13.50;;;;;;;;5059725;28;45461;-69
2023/12/06 00:14:32;;;;;;;;;18.50;10.25;;;;;;;;5063627;28;45431;-69
2023/12/06 00:16:57;;;;;;;;;19.00;13.33;;;;;;;;5058281;28;46249;-69
2023/12/06 00:19:23;;;;;;;;;11.00;11.00;;;;;;;;5057812;28;45513;-69
2023/12/06 00:21:48;;;;;;;;;14.00;14.00;;;;;;;;5040876;28;45473;-69
2023/12/06 00:24:13;;;;;;;;;18.33;14.67;;;;;;;;5058466;28;45568;-68
2023/12/06 00:26:42;;;;;;;;;22.33;15.33;;;;;;;;5057312;28;46719;-68
2023/12/06 00:29:07;;;;;;;;;21.50;15.00;;;;;;;;5057350;28;45478;-68
2023/12/06 00:31:32;;;;;;;;;21.33;14.00;;;;;;;;5058345;28;45490;-68
2023/12/06 00:33:57;;;;;;;;;17.33;13.00;;;;;;;;5057418;28;45581;-68
2023/12/06 00:36:23;;;;;;;;;15.50;12.50;;;;;;;;5058607;28;46061;-68
2023/12/06 00:38:48;;;;;;;;;17.00;14.00;;;;;;;;5059037;28;45484;-68
2023/12/06 00:41:13;;;;;;;;;12.50;11.00;;;;;;;;5057390;28;45188;-69
2023/12/06 00:43:38;;;;;;;;;9.25;7.75;;;;;;;;5051498;28;45357;-68
2023/12/06 00:46:03;;;;;;;;;14.67;12.00;;;;;;;;5058380;28;46431;-69
2023/12/06 00:48:29;;;;;;;;;7.75;7.75;;;;;;;;5055951;28;45265;-69
2023/12/06 00:51:02;;;;;;;;;18.75;13.25;;;;;;;;5052640;28;45458;-68
2023/12/06 00:53:28;;;;;;;;;14.50;13.00;;;;;;;;5036525;28;45811;-69
2023/12/06 00:55:53;;;;;;;;;18.00;13.75;;;;;;;;5051880;28;46561;-69
2023/12/06 00:58:18;;;;;;;;;14.50;12.00;;;;;;;;5059752;28;45363;-68
2023/12/06 01:00:43;;;;;;;;;16.75;12.00;;;;;;;;5057455;28;45394;-69
2023/12/06 01:03:08;;;;;;;;;13.75;11.25;;;;;;;;5057745;28;45403;-69
2023/12/06 01:05:34;;;;;;;;;14.00;12.00;;;;;;;;5057047;28;45515;-68
2023/12/06 01:07:59;;;;;;;;;13.67;12.33;;;;;;;;5056658;28;45406;-68
2023/12/06 01:10:24;;;;;;;;;3.00;1.33;;;;;;;;5057288;28;45411;-69
2023/12/06 01:12:49;;;;;;;;;12.75;10.50;;;;;;;;5057580;28;45419;-69
2023/12/06 01:15:14;;;;;;;;;20.00;17.00;;;;;;;;5056460;28;46257;-68
2023/12/06 01:17:39;;;;;;;;;9.00;9.00;;;;;;;;5057261;28;45605;-68
2023/12/06 01:20:06;;;;;;;;;17.00;13.00;;;;;;;;5056994;28;45339;-68
2023/12/06 01:22:31;;;;;;;;;14.25;13.00;;;;;;;;5057841;28;45637;-68
2023/12/06 01:24:59;;;;;;;;;15.25;12.00;;;;;;;;5057250;28;46731;-69
2023/12/06 01:27:25;;;;;;;;;19.75;11.00;;;;;;;;5057331;28;45347;-69
2023/12/06 01:29:50;;;;;;;;;14.75;13.25;;;;;;;;5064017;28;46381;-69
2023/12/06 01:32:15;;;;;;;;;11.67;9.67;;;;;;;;5057095;28;45673;-69
2023/12/06 01:34:40;;;;;;;;;13.50;11.50;;;;;;;;5057314;28;45621;-69
2023/12/06 01:37:05;;;;;;;;;13.00;9.00;;;;;;;;5056219;28;45331;-69
2023/12/06 01:39:30;;;;;;;;;19.67;13.00;;;;;;;;5039258;28;45435;-68
2023/12/06 01:41:56;;;;;;;;;13.33;11.67;;;;;;;;5057095;28;45399;-68
2023/12/06 01:44:22;;;;;;;;;11.75;11.75;;;;;;;;5065149;28;46363;-69
2023/12/06 01:46:47;;;;;;;;;16.00;12.00;;;;;;;;5040896;28;45787;-69
2023/12/06 01:49:12;;;;;;;;;16.75;11.75;;;;;;;;5041354;28;45456;-69
2023/12/06 01:51:38;;;;;;;;;11.25;11.25;;;;;;;;5052568;28;45425;-69
2023/12/06 01:54:03;;;;;;;;;18.00;13.50;;;;;;;;5056839;28;45803;-70
2023/12/06 01:56:28;;;;;;;;;11.75;11.75;;;;;;;;5059968;28;45523;-69
2023/12/06 01:58:54;;;;;;;;;16.00;12.00;;;;;;;;5056918;28;45193;-69
2023/12/06 02:01:19;;;;;;;;;14.75;11.25;;;;;;;;5056985;28;45526;-68
2023/12/06 02:03:45;;;;;;;;;16.75;15.00;;;;;;;;5054926;28;45661;-69
2023/12/06 02:06:10;;;;;;;;;17.50;12.00;;;;;;;;5057104;28;45316;-69
2023/12/06 02:08:36;;;;;;;;;23.50;13.25;;;;;;;;5057043;28;45425;-68
2023/12/06 02:11:01;;;;;;;;;12.50;12.50;;;;;;;;5063193;28;45656;-69
2023/12/06 02:13:27;;;;;;;;;15.75;14.50;;;;;;;;5056652;28;46830;-69
2023/12/06 02:15:52;;;;;;;;;19.25;14.25;;;;;;;;5064718;28;45452;-69
2023/12/06 02:18:18;;;;;;;;;17.75;15.75;;;;;;;;5060809;28;45329;-69
2023/12/06 02:20:43;;;;;;;;;18.00;16.75;;;;;;;;5058618;28;45438;-68
2023/12/06 02:23:09;;;;;;;;;16.75;14.75;;;;;;;;5056391;28;45442;-69
2023/12/06 02:25:34;;;;;;;;;18.50;14.50;;;;;;;;5056619;28;45347;-69
2023/12/06 02:28:00;;;;;;;;;24.00;18.33;;;;;;;;5056507;28;45399;-69
2023/12/06 02:30:25;;;;;;;;;15.25;12.00;;;;;;;;5064180;28;45575;-68
2023/12/06 02:32:50;;;;;;;;;17.75;16.25;;;;;;;;5057888;28;45770;-68
2023/12/06 02:35:21;;;;;;;;;17.00;14.75;;;;;;;;5056470;28;45408;-69
2023/12/06 02:37:48;;;;;;;;;23.50;19.00;;;;;;;;5056468;28;45320;-68
2023/12/06 02:40:13;;;;;;;;;19.25;15.50;;;;;;;;5055907;28;45361;-69
2023/12/06 02:42:39;;;;;;;;;17.50;14.00;;;;;;;;5056127;28;46952;-69
2023/12/06 02:45:04;;;;;;;;;17.50;17.50;;;;;;;;5055776;28;45394;-69
2023/12/06 02:47:29;;;;;;;;;17.50;16.75;;;;;;;;5038163;28;45373;-68
2023/12/06 02:49:55;;;;;;;;;18.75;17.00;;;;;;;;5059394;28;45638;-68
2023/12/06 02:52:20;;;;;;;;;17.67;15.33;;;;;;;;5055975;28;46586;-69
2023/12/06 02:54:45;;;;;;;;;22.00;14.75;;;;;;;;5058896;28;45478;-68
2023/12/06 02:57:10;;;;;;;;;19.50;16.25;;;;;;;;5056254;28;45374;-68
2023/12/06 02:59:35;;;;;;;;;15.25;13.00;;;;;;;;5055530;28;45461;-68
2023/12/06 03:02:01;;;;;;;;;17.25;16.50;;;;;;;;5037480;28;48897;-69
2023/12/06 03:04:26;;;;;;;;;22.50;18.75;;;;;;;;5058394;28;45529;-69
2023/12/06 03:06:51;;;;;;;;;20.25;15.50;;;;;;;;5053569;28;45362;-68
2023/12/06 03:09:16;;;;;;;;;18.67;15.00;;;;;;;;5058543;28;45582;-69
2023/12/06 03:11:42;;;;;;;;;18.25;17.25;;;;;;;;5059057;28;46048;-69
2023/12/06 03:14:07;;;;;;;;;16.00;16.00;;;;;;;;5057869;28;45399;-68
2023/12/06 03:16:33;;;;;;;;;17.25;16.25;;;;;;;;5059628;28;45280;-69
2023/12/06 03:18:59;;;;;;;;;22.50;17.50;;;;;;;;5070024;28;45529;-69
2023/12/06 03:21:24;;;;;;;;;19.00;17.00;;;;;;;;5059243;28;46714;-69
2023/12/06 03:23:49;;;;;;;;;21.00;16.33;;;;;;;;5059252;28;45537;-69
2023/12/06 03:26:14;;;;;;;;;19.25;18.00;;;;;;;;5068431;28;45245;-69
2023/12/06 03:28:39;;;;;;;;;22.00;16.67;;;;;;;;5066551;28;45568;-69
2023/12/06 03:31:05;;;;;;;;;19.33;16.00;;;;;;;;5051314;28;47207;-69
2023/12/06 03:33:30;;;;;;;;;13.00;13.00;;;;;;;;5059147;28;45358;-69
2023/12/06 03:35:55;;;;;;;;;13.00;12.00;;;;;;;;5059062;28;45996;-69
2023/12/06 03:38:20;;;;;;;;;7.00;6.00;;;;;;;;5061827;28;45543;-68
2023/12/06 03:40:45;;;;;;;;;17.00;14.33;;;;;;;;5040882;28;47323;-69
2023/12/06 03:43:10;;;;;;;;;13.00;13.00;;;;;;;;5058574;28;45398;-68
2023/12/06 03:45:36;;;;;;;;;18.00;14.33;;;;;;;;5059947;28;45394;-68
2023/12/06 03:48:01;;;;;;;;;13.50;9.50;;;;;;;;5064306;28;45251;-69
2023/12/06 03:50:26;;;;;;;;;20.67;13.00;;;;;;;;5048439;28;45434;-68
2023/12/06 03:52:51;;;;;;;;;13.00;12.50;;;;;;;;5040907;28;45442;-69
2023/12/06 03:55:16;;;;;;;;;16.00;12.00;;;;;;;;5058966;28;45433;-68
2023/12/06 03:57:41;;;;;;;;;13.33;12.33;;;;;;;;5061574;28;46968;-69
2023/12/06 04:00:07;;;;;;;;;20.00;15.75;;;;;;;;5060332;28;46682;-68
2023/12/06 04:02:32;;;;;;;;;16.50;13.50;;;;;;;;5062382;28;45461;-68
2023/12/06 04:04:58;;;;;;;;;14.75;13.25;;;;;;;;5060287;28;45316;-69
2023/12/06 04:07:23;;;;;;;;;21.25;14.50;;;;;;;;5059673;28;45470;-68
2023/12/06 04:09:49;;;;;;;;;13.25;12.00;;;;;;;;5059804;28;45718;-69
2023/12/06 04:12:14;;;;;;;;;14.67;12.33;;;;;;;;5058276;28;45296;-68
2023/12/06 04:14:39;;;;;;;;;16.25;12.50;;;;;;;;5055480;28;45369;-69
2023/12/06 04:17:04;;;;;;;;;14.33;12.00;;;;;;;;5058963;28;45207;-68
2023/12/06 04:19:29;;;;;;;;;20.67;13.00;;;;;;;;5059137;28;46284;-69
2023/12/06 04:21:54;;;;;;;;;13.00;12.00;;;;;;;;5057376;28;45506;-69
2023/12/06 04:24:20;;;;;;;;;11.33;11.00;;;;;;;;5058016;28;45576;-68
2023/12/06 04:26:45;;;;;;;;;12.33;10.00;;;;;;;;5040204;28;45414;-69
2023/12/06 04:29:10;;;;;;;;;12.33;11.00;;;;;;;;5058433;28;46575;-68
2023/12/06 04:31:36;;;;;;;;;12.33;12.00;;;;;;;;5058216;28;45431;-69
2023/12/06 04:34:01;;;;;;;;;17.25;15.25;;;;;;;;5057839;28;45437;-68
2023/12/06 04:36:27;;;;;;;;;15.25;11.00;;;;;;;;5058149;28;45222;-69
2023/12/06 04:38:52;;;;;;;;;12.00;11.67;;;;;;;;5060046;28;45878;-68
2023/12/06 04:41:17;;;;;;;;;14.33;12.00;;;;;;;;5057763;28;45273;-69
2023/12/06 04:43:42;;;;;;;;;12.50;10.25;;;;;;;;5057357;28;45454;-68
2023/12/06 04:46:08;;;;;;;;;16.00;13.00;;;;;;;;5058223;28;45603;-69
2023/12/06 04:48:33;;;;;;;;;17.50;10.50;;;;;;;;5063338;28;47219;-68
2023/12/06 04:50:58;;;;;;;;;11.00;10.25;;;;;;;;5048881;28;45179;-69
2023/12/06 04:53:23;;;;;;;;;11.00;11.00;;;;;;;;5057911;28;45460;-68
2023/12/06 04:55:49;;;;;;;;;12.67;10.67;;;;;;;;5058272;28;45427;-69
2023/12/06 04:58:14;;;;;;;;;13.67;12.00;;;;;;;;5063374;28;45715;-69
2023/12/06 05:00:39;;;;;;;;;12.00;12.00;;;;;;;;5056766;28;45194;-69
2023/12/06 05:03:04;;;;;;;;;11.75;10.50;;;;;;;;5063911;28;45510;-68
2023/12/06 05:05:29;;;;;;;;;12.00;12.00;;;;;;;;5057569;28;45310;-68
2023/12/06 05:07:57;;;;;;;;;15.00;11.33;;;;;;;;5060991;28;46600;-69
2023/12/06 05:10:22;;;;;;;;;12.25;10.00;;;;;;;;5056772;28;45393;-69
2023/12/06 05:12:48;;;;;;;;;12.25;10.75;;;;;;;;5057289;28;45374;-69
2023/12/06 05:15:13;;;;;;;;;13.25;12.25;;;;;;;;5057741;28;45254;-69
2023/12/06 05:17:38;;;;;;;;;13.25;11.50;;;;;;;;5059929;28;45462;-68
2023/12/06 05:20:04;;;;;;;;;10.00;10.00;;;;;;;;5056979;28;45371;-69
2023/12/06 05:22:29;;;;;;;;;17.50;11.75;;;;;;;;5056309;28;45522;-69
2023/12/06 05:24:54;;;;;;;;;8.33;7.00;;;;;;;;5057113;28;45394;-69
2023/12/06 05:27:21;;;;;;;;;10.50;9.00;;;;;;;;5060158;28;45449;-69
2023/12/06 05:29:46;;;;;;;;;11.75;8.00;;;;;;;;5057252;28;45208;-68
2023/12/06 05:32:12;;;;;;;;;12.00;10.00;;;;;;;;5057049;28;45378;-69
2023/12/06 05:34:37;;;;;;;;;11.75;11.75;;;;;;;;5057389;28;45335;-69
2023/12/06 05:37:02;;;;;;;;;14.33;10.67;;;;;;;;5059972;28;46497;-69
2023/12/06 05:39:28;;;;;;;;;16.50;12.25;;;;;;;;5055931;28;45435;-68
2023/12/06 05:41:53;;;;;;;;;16.00;12.00;;;;;;;;5056530;28;45248;-69
2023/12/06 05:44:18;;;;;;;;;10.67;10.67;;;;;;;;5057056;28;45648;-69
2023/12/06 05:46:43;;;;;;;;;15.00;12.00;;;;;;;;5056596;28;45520;-68
2023/12/06 05:49:09;;;;;;;;;19.00;13.00;;;;;;;;5061003;28;45446;-69
2023/12/06 05:51:34;;;;;;;;;13.00;11.00;;;;;;;;5052417;28;45525;-68
2023/12/06 05:53:59;;;;;;;;;15.50;15.50;;;;;;;;5056317;28;45282;-69
2023/12/06 05:56:24;;;;;;;;;15.00;11.33;;;;;;;;5056489;28;47495;-69
2023/12/06 05:58:50;;;;;;;;;15.33;14.67;;;;;;;;5064528;28;47280;-69
2023/12/06 06:01:15;;;;;;;;;11.50;11.50;;;;;;;;5198647;22;46013;-69
2023/12/06 06:03:40;;;;;;;;;15.00;10.67;;;;;;;;5075750;28;45276;-69
2023/12/06 06:06:06;;;;;;;;;14.33;12.33;;;;;;;;5075375;28;46589;-70
2023/12/06 06:08:31;;;;;;;;;18.50;15.75;;;;;;;;5075770;28;45206;-68
2023/12/06 06:10:56;;;;;;;;;15.25;11.00;;;;;;;;5076107;28;45556;-69
2023/12/06 06:13:22;;;;;;;;;16.33;11.67;;;;;;;;5076891;28;45390;-69
2023/12/06 06:15:47;;;;;;;;;15.33;15.00;;;;;;;;5075835;28;45617;-69
2023/12/06 06:18:12;;;;;;;;;13.67;12.00;;;;;;;;5076308;28;45505;-69
2023/12/06 06:20:37;;;;;;;;;21.25;15.00;;;;;;;;5075824;28;45324;-69
2023/12/06 06:23:02;;;;;;;;;20.00;15.33;;;;;;;;5076278;27;45747;-69
2023/12/06 06:25:28;;;;;;;;;14.67;12.00;;;;;;;;5075610;28;45669;-69
2023/12/06 06:27:53;;;;;;;;;16.67;15.00;;;;;;;;5076205;28;45345;-69
2023/12/06 06:30:18;;;;;;;;;10.33;10.33;;;;;;;;5075438;28;45467;-69
2023/12/06 06:32:43;;;;;;;;;14.33;12.00;;;;;;;;5075507;28;45703;-68
2023/12/06 06:35:08;;;;;;;;;11.33;11.33;;;;;;;;5075120;28;45616;-68
2023/12/06 06:37:34;;;;;;;;;14.75;8.25;;;;;;;;5072791;28;45553;-69
2023/12/06 06:39:59;;;;;;;;;20.25;15.00;;;;;;;;5058217;28;45354;-69
2023/12/06 06:42:24;;;;;;;;;15.00;12.67;;;;;;;;5078665;28;45592;-70
2023/12/06 06:44:51;;;;;;;;;23.75;14.00;;;;;;;;5079365;28;46070;-70
2023/12/06 06:47:16;;;;;;;;;13.25;10.25;;;;;;;;5075047;28;45501;-69
2023/12/06 06:49:42;;;;;;;;;16.75;12.25;;;;;;;;5075366;28;45339;-69
2023/12/06 06:52:07;;;;;;;;;11.33;11.33;;;;;;;;5079349;28;45209;-68
2023/12/06 06:54:32;;;;;;;;;15.33;12.00;;;;;;;;5080003;28;47024;-71
2023/12/06 06:56:57;;;;;;;;;13.67;11.00;;;;;;;;5079661;28;45384;-68
2023/12/06 06:59:22;;;;;;;;;11.00;11.00;;;;;;;;5060473;28;45344;-70
2023/12/06 07:01:47;;;;;;;;;12.67;11.33;;;;;;;;5081055;27;45453;-69
2023/12/06 07:04:13;;;;;;;;;19.00;16.00;;;;;;;;5078857;28;46045;-69
2023/12/06 07:06:39;;;;;;;;;12.50;11.75;;;;;;;;5079483;28;45232;-68
2023/12/06 07:09:04;;;;;;;;;16.75;14.00;;;;;;;;5077131;28;45628;-69
2023/12/06 07:11:29;;;;;;;;;16.75;15.00;;;;;;;;5060395;28;45575;-69
2023/12/06 07:13:54;;;;;;;;;16.75;12.00;;;;;;;;5077198;28;46395;-70
2023/12/06 07:16:21;;;;;;;;;16.50;15.25;;;;;;;;5077013;28;45461;-69
2023/12/06 07:18:46;;;;;;;;;16.00;15.00;;;;;;;;5076249;28;45482;-69
2023/12/06 07:21:11;;;;;;;;;12.00;11.00;;;;;;;;5071771;27;45346;-70
2023/12/06 07:23:37;;;;;;;;;12.00;11.00;;;;;;;;5077535;28;45902;-74
2023/12/06 07:26:02;;;;;;;;;19.33;12.33;;;;;;;;5046370;28;45961;-75
2023/12/06 07:28:28;;;;;;;;;15.00;10.25;;;;;;;;5073203;28;45426;-75
2023/12/06 07:30:53;;;;;;;;;15.00;13.50;;;;;;;;5075360;28;45390;-75
2023/12/06 07:33:19;;;;;;;;;18.67;13.33;;;;;;;;5073192;28;45759;-72
2023/12/06 07:35:44;;;;;;;;;14.25;10.00;;;;;;;;5075195;28;45422;-74
2023/12/06 07:38:11;;;;;;;;;11.33;11.33;;;;;;;;5073005;28;45604;-76
2023/12/06 07:40:36;;;;;;;;;14.75;11.50;;;;;;;;5067251;28;45616;-76
2023/12/06 07:43:02;;;;;;;;;17.75;13.00;;;;;;;;5063969;28;46360;-76
2023/12/06 07:45:27;;;;;;;;;17.00;14.50;;;;;;;;5062880;28;45426;-75
2023/12/06 07:47:52;;;;;;;;;20.25;14.50;;;;;;;;5069235;28;45508;-76
2023/12/06 07:50:19;;;;;;;;;18.00;13.50;;;;;;;;5065746;28;45771;-73
2023/12/06 07:52:45;;;;;;;;;16.75;13.00;;;;;;;;5069510;28;47412;-80
2023/12/06 07:55:12;;;;;;;;;16.75;13.75;;;;;;;;5054522;28;45606;-75
2023/12/06 07:57:38;;;;;;;;;12.25;12.25;;;;;;;;5074618;28;45527;-74
2023/12/06 08:00:04;;;;;;;;;13.00;10.00;;;;;;;;5073472;28;45370;-67
2023/12/06 08:02:30;;;;;;;;;17.50;14.25;;;;;;;;5075926;27;46730;-68
2023/12/06 08:04:55;;;;;;;;;14.50;10.00;;;;;;;;5050191;28;46310;-68
2023/12/06 08:07:22;;;;;;;;;14.33;13.00;;;;;;;;5065953;27;45758;-70
2023/12/06 08:09:49;;;;;;;;;14.25;13.00;;;;;;;;5073494;27;45568;-67
2023/12/06 08:12:14;;;;;;;;;16.25;14.00;;;;;;;;5066400;27;46212;-68
2023/12/06 08:14:40;;;;;;;;;16.33;11.67;;;;;;;;5066846;28;45549;-69
2023/12/06 08:17:05;;;;;;;;;25.50;15.25;;;;;;;;5074707;28;45394;-68
2023/12/06 08:19:31;;;;;;;;;21.00;14.25;;;;;;;;5077230;28;45360;-66
2023/12/06 08:21:56;;;;;;;;;18.67;13.67;;;;;;;;5074953;28;46068;-68
2023/12/06 08:24:21;;;;;;;;;14.33;12.67;;;;;;;;5075885;28;45485;-68
2023/12/06 08:26:46;;;;;;;;;13.67;9.67;;;;;;;;5075828;28;45685;-69
2023/12/06 08:29:11;;;;;;;;;15.67;10.33;;;;;;;;5075083;28;45370;-67
2023/12/06 08:31:36;;;;;;;;;19.25;14.25;;;;;;;;5075167;28;46741;-72
2023/12/06 08:34:02;;;;;;;;;16.75;14.00;;;;;;;;5072458;28;45569;-73
2023/12/06 08:36:27;;;;;;;;;17.75;14.00;;;;;;;;5075044;28;45396;-69
2023/12/06 08:38:52;;;;;;;;;15.00;13.25;;;;;;;;5076141;27;45502;-70
2023/12/06 08:41:18;;;;;;;;;15.00;14.00;;;;;;;;5050297;28;46614;-70
2023/12/06 08:43:43;;;;;;;;;22.00;15.00;;;;;;;;5068598;27;45447;-70
2023/12/06 08:46:08;;;;;;;;;14.75;13.00;;;;;;;;5071704;28;45520;-73
2023/12/06 08:48:34;;;;;;;;;15.33;13.67;;;;;;;;5074911;27;45438;-70
2023/12/06 08:50:59;;;;;;;;;15.00;14.00;;;;;;;;5074929;28;45804;-71
2023/12/06 08:53:24;;;;;;;;;22.00;19.00;;;;;;;;5069723;27;46515;-71
2023/12/06 08:55:49;;;;;;;;;17.75;15.00;;;;;;;;5065450;28;45454;-68
2023/12/06 08:58:15;;;;;;;;;17.75;12.75;;;;;;;;5063997;27;45521;-70
2023/12/06 09:00:40;;;;;;;;;13.33;10.00;;;;;;;;5074089;27;45695;-70
2023/12/06 09:03:05;;;;;;;;;15.67;15.67;;;;;;;;5074119;27;45447;-70
2023/12/06 09:05:30;;;;;;;;;17.67;14.33;;;;;;;;5073454;28;45474;-71
2023/12/06 09:07:56;;;;;;;;;18.00;18.00;;;;;;;;5076424;27;45673;-71
2023/12/06 09:10:21;;;;;;;;;16.25;12.25;;;;;;;;5075855;27;46673;-70
2023/12/06 09:12:47;;;;;;;;;19.00;12.00;;;;;;;;5075393;27;45542;-72
2023/12/06 09:15:12;;;;;;;;;18.67;14.00;;;;;;;;5072690;28;45684;-69
2023/12/06 09:17:38;;;;;;;;;14.00;13.33;;;;;;;;5073910;27;45442;-67
2023/12/06 09:20:03;;;;;;;;;23.75;16.75;;;;;;;;5070477;27;46545;-73
2023/12/06 09:22:28;;;;;;;;;15.50;14.75;;;;;;;;5073018;27;45460;-70
2023/12/06 09:24:53;;;;;;;;;15.67;15.67;;;;;;;;5074076;27;45620;-70
2023/12/06 09:27:19;;;;;;;;;14.75;14.75;;;;;;;;5073473;27;45327;-72
2023/12/06 09:29:45;;;;;;;;;19.00;17.25;;;;;;;;5075058;27;45761;-69
2023/12/06 09:32:11;;;;;;;;;15.25;13.50;;;;;;;;5050995;27;45539;-71
2023/12/06 09:34:36;;;;;;;;;16.50;12.00;;;;;;;;5072372;27;45696;-70
2023/12/06 09:37:01;;;;;;;;;16.00;14.00;;;;;;;;5075139;28;45424;-69
2023/12/06 09:39:26;;;;;;;;;17.33;15.00;;;;;;;;5075013;27;45574;-70
2023/12/06 09:41:51;;;;;;;;;16.75;12.25;;;;;;;;5074084;27;45571;-71
2023/12/06 09:44:17;;;;;;;;;17.67;14.33;;;;;;;;5073697;27;45438;-69
2023/12/06 09:46:43;;;;;;;;;20.25;19.00;;;;;;;;5073991;27;45662;-69
2023/12/06 09:49:08;;;;;;;;;22.00;19.25;;;;;;;;5075630;27;46310;-72
2023/12/06 09:51:33;;;;;;;;;22.25;18.50;;;;;;;;5080538;27;45523;-70
2023/12/06 09:53:58;;;;;;;;;22.67;16.33;;;;;;;;5073308;27;45528;-71
2023/12/06 09:56:24;;;;;;;;;21.00;19.25;;;;;;;;5073243;28;45459;-69
2023/12/06 09:58:49;;;;;;;;;18.25;17.25;;;;;;;;5068534;27;45670;-69
2023/12/06 10:01:14;;;;;;;;;19.50;16.00;;;;;;;;5054328;28;45596;-68
2023/12/06 10:03:40;;;;;;;;;21.75;20.00;;;;;;;;5072108;27;45431;-71
2023/12/06 10:06:05;;;;;;;;;23.50;19.25;;;;;;;;5071015;28;45348;-73
2023/12/06 10:08:31;;;;;;;;;27.00;20.50;;;;;;;;5074253;27;46518;-69
2023/12/06 10:11:00;;;;;;;;;30.50;25.00;;;;;;;;5074538;27;45759;-70
2023/12/06 10:13:31;;;;;;;;;21.00;17.25;;;;;;;;5072106;27;45383;-72
2023/12/06 10:15:57;;;;;;;;;22.50;20.75;;;;;;;;5072039;27;45610;-70
2023/12/06 10:18:22;;;;;;;;;21.00;18.00;;;;;;;;5073511;27;48449;-72
2023/12/06 10:20:47;;;;;;;;;27.33;22.33;;;;;;;;5074201;27;45767;-70
2023/12/06 10:23:12;;;;;;;;;26.33;25.33;;;;;;;;5074749;28;45469;-72
2023/12/06 10:25:38;;;;;;;;;29.67;22.00;;;;;;;;5074233;27;45552;-70
2023/12/06 10:28:03;;;;;;;;;25.25;23.50;;;;;;;;5071331;27;46037;-70
2023/12/06 10:30:28;;;;;;;;;25.00;20.75;;;;;;;;5074678;27;45476;-71
2023/12/06 10:32:55;;;;;;;;;21.25;19.25;;;;;;;;5072431;27;45945;-70
2023/12/06 10:35:20;;;;;;;;;26.00;22.50;;;;;;;;5066217;27;45476;-71
2023/12/06 10:37:48;;;;;;;;;27.50;19.00;;;;;;;;5074425;27;45455;-69
2023/12/06 10:40:14;;;;;;;;;21.00;16.25;;;;;;;;5072577;27;45311;-70
2023/12/06 10:42:43;;;;;;;;;22.00;20.50;;;;;;;;5075356;27;45554;-70
2023/12/06 10:45:10;;;;;;;;;23.75;21.00;;;;;;;;5073313;28;45252;-70
2023/12/06 10:47:36;;;;;;;;;25.25;21.25;;;;;;;;5072541;27;45714;-73
2023/12/06 10:50:03;;;;;;;;;26.25;19.50;;;;;;;;5055995;28;45379;-72
2023/12/06 10:52:29;;;;;;;;;45.75;40.00;;;;;;;;5073974;27;45465;-70
2023/12/06 10:54:54;;;;;;;;;24.50;22.00;;;;;;;;5074341;28;45646;-70
2023/12/06 10:57:20;;;;;;;;;20.75;19.00;;;;;;;;5074696;27;45934;-69
2023/12/06 10:59:45;;;;;;;;;21.25;18.00;;;;;;;;5074311;28;45488;-70
2023/12/06 11:02:11;;;;;;;;;34.25;25.00;;;;;;;;5073552;27;45493;-70
2023/12/06 11:04:38;;;;;;;;;30.50;27.00;;;;;;;;5074196;28;45367;-69
2023/12/06 11:07:15;;;;;;;;;23.25;22.75;;;;;;;;5072844;27;45437;-70
2023/12/06 11:09:50;;;;;;;;;29.00;23.75;;;;;;;;5072824;28;45343;-70
2023/12/06 11:12:21;;;;;;;;;28.75;24.50;;;;;;;;5074103;27;45513;-70
2023/12/06 11:15:18;;;;;;;;;30.00;24.00;;;;;;;;5072099;28;45411;-73
2023/12/06 11:18:08;;;;;;;;;31.50;23.50;;;;;;;;5027770;28;45974;-72
2023/12/06 11:20:33;;;;;;;;;25.50;21.75;;;;;;;;5057498;28;45497;-71
2023/12/06 11:22:58;;;;;;;;;27.00;19.25;;;;;;;;5070627;27;45626;-73
2023/12/06 11:25:23;;;;;;;;;21.50;18.75;;;;;;;;5055913;28;45699;-71
2023/12/06 11:27:49;;;;;;;;;22.67;18.33;;;;;;;;5073456;27;46534;-71
2023/12/06 11:30:16;;;;;;;;;27.75;19.00;;;;;;;;5068924;28;45586;-71
2023/12/06 11:32:42;;;;;;;;;18.75;17.50;;;;;;;;5069049;28;45486;-70
2023/12/06 11:35:07;;;;;;;;;24.00;18.50;;;;;;;;5066444;28;46235;-72
2023/12/06 11:37:33;;;;;;;;;22.00;19.00;;;;;;;;5071817;28;46102;-72
2023/12/06 11:40:07;;;;;;;;;16.67;13.67;;;;;;;;5071388;28;45510;-70
2023/12/06 11:42:36;;;;;;;;;27.00;20.50;;;;;;;;5075154;28;46467;-70
2023/12/06 11:45:01;;;;;;;;;25.50;25.00;;;;;;;;5077214;28;45435;-71
2023/12/06 11:47:26;;;;;;;;;12.67;12.67;;;;;;;;5076789;28;46449;-72
2023/12/06 11:49:52;;;;;;;;;18.67;16.67;;;;;;;;5074195;28;46498;-70
2023/12/06 11:52:17;;;;;;;;;17.75;13.25;;;;;;;;5077733;28;46708;-72
2023/12/06 11:54:46;;;;;;;;;14.75;13.00;;;;;;;;5073951;28;45680;-70
2023/12/06 11:57:11;;;;;;;;;20.00;15.75;;;;;;;;5075663;28;45678;-69
2023/12/06 11:59:37;;;;;;;;;16.50;13.50;;;;;;;;5076672;28;45479;-69
2023/12/06 12:02:02;;;;;;;;;17.50;17.50;;;;;;;;5074945;27;45545;-69
2023/12/06 12:04:27;;;;;;;;;21.25;18.50;;;;;;;;5079733;27;45483;-69
2023/12/06 12:06:52;;;;;;;;;19.67;19.00;;;;;;;;5072545;28;45764;-70
2023/12/06 12:09:18;;;;;;;;;17.00;14.25;;;;;;;;5077281;28;45350;-70
2023/12/06 12:11:44;;;;;;;;;17.25;16.75;;;;;;;;5076810;28;45481;-70
2023/12/06 12:14:10;;;;;;;;;17.75;12.00;;;;;;;;5076609;28;45578;-70
2023/12/06 12:16:36;;;;;;;;;18.00;16.67;;;;;;;;5077360;28;46044;-69
2023/12/06 12:19:03;;;;;;;;;17.75;15.75;;;;;;;;5076941;28;45403;-69
2023/12/06 12:21:29;;;;;;;;;22.25;20.00;;;;;;;;5073923;28;45541;-70
2023/12/06 12:23:54;;;;;;;;;13.75;13.75;;;;;;;;5075587;28;45643;-69
2023/12/06 12:26:19;;;;;;;;;14.50;14.50;;;;;;;;5076558;28;45909;-69
2023/12/06 12:28:45;;;;;;;;;18.33;16.00;;;;;;;;5077254;28;46957;-69
2023/12/06 12:31:12;;;;;;;;;16.50;12.00;;;;;;;;5077203;28;45429;-71
2023/12/06 12:33:37;;;;;;;;;12.00;12.00;;;;;;;;5077759;28;45596;-69
2023/12/06 12:36:03;;;;;;;;;19.00;15.75;;;;;;;;5075216;28;46459;-69
2023/12/06 12:38:28;;;;;;;;;12.50;8.75;;;;;;;;5077583;28;45294;-69
2023/12/06 12:40:56;;;;;;;;;12.75;11.75;;;;;;;;5077443;28;45434;-71
2023/12/06 12:43:22;;;;;;;;;14.00;11.00;;;;;;;;5077377;28;45326;-69
2023/12/06 12:45:47;;;;;;;;;17.00;15.50;;;;;;;;5077053;28;45617;-69
2023/12/06 12:48:13;;;;;;;;;15.33;12.33;;;;;;;;5077082;28;45529;-69
2023/12/06 12:50:39;;;;;;;;;14.25;10.75;;;;;;;;5075319;27;45480;-69
2023/12/06 12:53:04;;;;;;;;;8.50;8.50;;;;;;;;5077234;28;45465;-70
2023/12/06 12:55:29;;;;;;;;;9.33;9.33;;;;;;;;5077033;28;45545;-70
2023/12/06 12:57:55;;;;;;;;;14.00;10.00;;;;;;;;5076518;28;45499;-70
2023/12/06 13:00:29;;;;;;;;;13.00;9.50;;;;;;;;5075825;28;45429;-72
2023/12/06 13:02:55;;;;;;;;;12.75;10.50;;;;;;;;5061126;28;45296;-69
2023/12/06 13:05:21;;;;;;;;;12.00;10.50;;;;;;;;5055086;28;46965;-70
2023/12/06 13:07:59;;;;;;;;;9.75;9.75;;;;;;;;5057138;28;45475;-69
2023/12/06 13:10:28;;;;;;;;;10.50;10.50;;;;;;;;5053608;28;45595;-69
2023/12/06 13:12:53;;;;;;;;;11.25;9.00;;;;;;;;5035735;28;45470;-70
2023/12/06 13:15:19;;;;;;;;;11.50;11.50;;;;;;;;5054122;28;46878;-69
2023/12/06 13:17:44;;;;;;;;;10.50;7.00;;;;;;;;5051744;28;45398;-69
2023/12/06 13:20:09;;;;;;;;;13.00;11.75;;;;;;;;5032735;28;46457;-70
2023/12/06 13:22:35;;;;;;;;;12.50;11.00;;;;;;;;5055270;28;45484;-69
2023/12/06 13:25:01;;;;;;;;;8.75;8.25;;;;;;;;5053979;28;46630;-68
2023/12/06 13:27:27;;;;;;;;;6.25;6.25;;;;;;;;5053283;28;45438;-68
2023/12/06 13:29:52;;;;;;;;;8.50;7.00;;;;;;;;5054508;28;45666;-71
2023/12/06 13:32:17;;;;;;;;;14.25;9.00;;;;;;;;5054158;28;45439;-69
2023/12/06 13:34:43;;;;;;;;;8.67;7.00;;;;;;;;5053723;28;45928;-68
2023/12/06 13:37:09;;;;;;;;;7.50;6.50;;;;;;;;5052663;28;45439;-69
2023/12/06 13:39:34;;;;;;;;;7.50;5.00;;;;;;;;5054927;28;45526;-71
2023/12/06 13:41:59;;;;;;;;;6.75;6.75;;;;;;;;5056094;28;45412;-70
2023/12/06 13:44:24;;;;;;;;;7.50;7.00;;;;;;;;5055063;28;45899;-68
2023/12/06 13:46:50;;;;;;;;;7.67;7.00;;;;;;;;5057128;28;45454;-68
2023/12/06 13:49:15;;;;;;;;;10.00;8.50;;;;;;;;5051976;28;45563;-68
2023/12/06 13:51:40;;;;;;;;;8.67;7.33;;;;;;;;5036889;28;45388;-69
2023/12/06 13:54:05;;;;;;;;;9.00;7.00;;;;;;;;5055133;28;45711;-70
2023/12/06 13:56:30;;;;;;;;;8.75;8.00;;;;;;;;5055190;28;45219;-69
2023/12/06 13:58:56;;;;;;;;;7.67;5.33;;;;;;;;5055193;28;45479;-68
2023/12/06 14:01:21;;;;;;;;;7.75;7.50;;;;;;;;5057034;28;45672;-69
2023/12/06 14:03:47;;;;;;;;;7.50;7.00;;;;;;;;5035721;28;47626;-70
2023/12/06 14:06:12;;;;;;;;;8.00;6.25;;;;;;;;5053942;28;45474;-69
2023/12/06 14:08:37;;;;;;;;;7.00;7.00;;;;;;;;5057469;28;45572;-69
2023/12/06 14:11:03;;;;;;;;;6.25;6.25;;;;;;;;5059917;28;45800;-69